Time;durP1;ratioP1;P1;durP2;ratioP2;P2;SDS_P1;SDS_P2;PMS_P1;PMS_P2;Temp;Humidity;BMP_temperature;BMP_pressure;BME280_temperature;BME280_humidity;BME280_pressure;Samples;Min_cycle;Max_cycle;Signal;HPM_P1;HPM_P2
2022/11/29 00:00:16;;;;;;;6.80;6.23;;;;;;;8.32;100.00;96389.63;5063590;28;20206;-63
2022/11/29 00:02:43;;;;;;;7.03;6.53;;;;;;;8.31;100.00;96392.38;5062815;28;20520;-62
2022/11/29 00:05:09;;;;;;;7.10;6.50;;;;;;;8.28;100.00;96392.63;5074261;28;20628;-63
2022/11/29 00:07:37;;;;;;;6.87;6.27;;;;;;;8.26;100.00;96398.03;5061745;28;20632;-62
2022/11/29 00:10:04;;;;;;;6.70;6.20;;;;;;;8.34;100.00;96397.38;5055056;28;20212;-63
2022/11/29 00:12:31;;;;;;;6.60;6.10;;;;;;;8.31;100.00;96393.22;5055673;28;20234;-62
2022/11/29 00:14:57;;;;;;;6.93;6.40;;;;;;;8.34;100.00;96394.75;5059728;28;20293;-63
2022/11/29 00:17:24;;;;;;;6.97;6.47;;;;;;;8.25;100.00;96385.00;5070362;28;20211;-63
2022/11/29 00:19:51;;;;;;;7.27;6.43;;;;;;;8.21;100.00;96384.44;5059249;28;21769;-63
2022/11/29 00:22:18;;;;;;;7.63;6.30;;;;;;;8.24;100.00;96380.69;5058676;28;20215;-63
2022/11/29 00:24:46;;;;;;;7.27;6.67;;;;;;;8.26;100.00;96384.00;5074861;28;20202;-63
2022/11/29 00:27:12;;;;;;;7.20;6.60;;;;;;;8.30;100.00;96383.66;5069470;28;20528;-62
2022/11/29 00:29:39;;;;;;;6.70;6.03;;;;;;;8.35;100.00;96386.72;5057574;28;20237;-62
2022/11/29 00:32:05;;;;;;;6.60;6.10;;;;;;;8.38;100.00;96383.81;5057292;28;20237;-61
2022/11/29 00:34:32;;;;;;;6.27;5.77;;;;;;;8.39;100.00;96384.66;5056968;28;20651;-63
2022/11/29 00:36:58;;;;;;;6.23;5.73;;;;;;;8.41;100.00;96385.34;5056560;28;20222;-61
2022/11/29 00:39:25;;;;;;;6.20;5.80;;;;;;;8.42;100.00;96384.38;5057074;28;20211;-62
2022/11/29 00:41:53;;;;;;;5.77;5.37;;;;;;;8.43;100.00;96386.03;5056911;28;20631;-62
2022/11/29 00:44:21;;;;;;;6.63;6.07;;;;;;;8.44;100.00;96378.00;5057061;28;20394;-62
2022/11/29 00:46:48;;;;;;;6.10;5.60;;;;;;;8.44;100.00;96375.34;5057099;28;20211;-62
2022/11/29 00:49:15;;;;;;;6.47;5.97;;;;;;;8.47;100.00;96384.78;5060112;28;20210;-62
2022/11/29 00:51:42;;;;;;;5.33;4.93;;;;;;;8.48;100.00;96378.53;5056540;28;20516;-62
2022/11/29 00:54:09;;;;;;;5.67;5.27;;;;;;;8.49;100.00;96374.94;5056791;28;20218;-61
2022/11/29 00:56:35;;;;;;;6.10;5.60;;;;;;;8.50;100.00;96380.06;5056455;28;20563;-63
2022/11/29 00:59:03;;;;;;;5.60;5.20;;;;;;;8.51;100.00;96373.00;5056589;28;20229;-62
2022/11/29 01:01:30;;;;;;;5.37;4.87;;;;;;;8.53;100.00;96373.72;5056805;28;20218;-63
2022/11/29 01:03:56;;;;;;;5.70;5.33;;;;;;;8.42;100.00;96376.47;5056772;28;20214;-62
2022/11/29 01:06:23;;;;;;;5.27;4.90;;;;;;;8.42;100.00;96379.94;5057851;28;20635;-63
2022/11/29 01:08:49;;;;;;;6.53;4.93;;;;;;;8.40;100.00;96370.47;5061591;28;20218;-63
2022/11/29 01:11:19;;;;;;;5.30;5.00;;;;;;;8.42;100.00;96379.09;5061096;28;20210;-62
2022/11/29 01:13:46;;;;;;;5.40;5.10;;;;;;;8.31;100.00;96377.41;5056551;28;20223;-63
2022/11/29 01:16:15;;;;;;;4.97;4.67;;;;;;;8.34;100.00;96381.56;5056647;28;20518;-62
2022/11/29 01:18:42;;;;;;;4.73;4.37;;;;;;;8.29;100.00;96384.59;5056730;28;20298;-63
2022/11/29 01:21:12;;;;;;;5.10;4.70;;;;;;;8.28;100.00;96376.81;5056286;28;20207;-63
2022/11/29 01:23:38;;;;;;;5.10;4.70;;;;;;;8.29;100.00;96379.34;5063016;28;20541;-63
2022/11/29 01:26:07;;;;;;;4.70;4.40;;;;;;;8.26;100.00;96376.09;5066489;28;20206;-62
2022/11/29 01:28:34;;;;;;;5.63;5.23;;;;;;;8.23;100.00;96373.75;5068121;28;20532;-62
2022/11/29 01:31:05;;;;;;;5.60;5.20;;;;;;;8.26;100.00;96370.84;5061307;28;20226;-62
2022/11/29 01:33:33;;;;;;;5.50;5.00;;;;;;;8.23;100.00;96371.13;5056241;28;20226;-63
2022/11/29 01:36:00;;;;;;;5.40;5.00;;;;;;;8.26;100.00;96370.84;5059907;28;20538;-63
2022/11/29 01:38:27;;;;;;;5.47;5.00;;;;;;;8.27;100.00;96369.88;5056273;28;20225;-62
2022/11/29 01:40:58;;;;;;;5.60;5.10;;;;;;;8.23;100.00;96368.47;5059377;28;20207;-64
2022/11/29 01:43:25;;;;;;;6.30;5.33;;;;;;;8.23;100.00;96365.84;5055728;28;20636;-63
2022/11/29 01:45:51;;;;;;;5.43;5.03;;;;;;;8.24;100.00;96370.16;5055860;28;20218;-63
2022/11/29 01:48:20;;;;;;;5.30;5.00;;;;;;;8.22;100.00;96367.66;5055738;28;20543;-63
2022/11/29 01:50:47;;;;;;;5.47;4.93;;;;;;;8.25;100.00;96366.56;5055582;28;20222;-62
2022/11/29 01:53:15;;;;;;;5.67;5.23;;;;;;;8.29;100.00;96373.25;5055788;28;20245;-62
2022/11/29 01:55:46;;;;;;;5.77;5.33;;;;;;;8.28;100.00;96376.81;5055799;28;20206;-63
2022/11/29 01:58:12;;;;;;;6.00;5.50;;;;;;;8.29;100.00;96373.25;5055889;28;20211;-62
2022/11/29 02:00:39;;;;;;;5.97;5.57;;;;;;;8.25;100.00;96372.66;5055567;28;20233;-63
2022/11/29 02:03:10;;;;;;;5.97;5.53;;;;;;;8.27;100.00;96369.88;5055559;28;20210;-61
2022/11/29 02:05:37;;;;;;;6.40;5.90;;;;;;;8.29;100.00;96373.25;5059094;28;20218;-63
2022/11/29 02:08:05;;;;;;;6.37;5.97;;;;;;;8.25;100.00;96362.13;5058091;28;20210;-63
2022/11/29 02:10:42;;;;;;;6.60;6.10;;;;;;;8.29;100.00;96374.06;5064890;28;20214;-63
2022/11/29 02:13:13;;;;;;;5.83;5.43;;;;;;;8.30;100.00;96372.28;5057693;28;20226;-63
2022/11/29 02:15:43;;;;;;;6.80;6.30;;;;;;;8.29;100.00;96373.25;5056800;28;20286;-63
2022/11/29 02:18:13;;;;;;;6.07;5.60;;;;;;;8.27;100.00;96368.09;5056410;28;20210;-63
2022/11/29 02:20:59;;;;;;;6.20;5.70;;;;;;;8.30;100.00;96365.22;5056575;28;20593;-63
2022/11/29 02:24:08;;;;;;;6.17;5.77;;;;;;;8.34;100.00;96369.25;5056648;28;20199;-63
2022/11/29 02:26:55;;;;;;;6.27;5.80;;;;;;;8.35;100.00;96362.16;5024697;28;20215;-63
2022/11/29 02:29:38;;;;;;;6.33;5.93;;;;;;;8.37;100.00;96363.69;5071452;28;20210;-63
2022/11/29 02:32:42;;;;;;;5.40;5.10;;;;;;;8.36;100.00;96363.84;5055594;28;20257;-62
2022/11/29 02:35:22;;;;;;;6.20;5.70;;;;;;;8.34;100.00;96365.78;5063839;28;20198;-63
2022/11/29 02:38:03;;;;;;;6.20;5.80;;;;;;;8.34;100.00;96366.59;5055122;28;20213;-63
2022/11/29 02:40:48;;;;;;;6.10;5.63;;;;;;;8.35;100.00;96364.81;5055117;28;20229;-63
2022/11/29 02:43:25;;;;;;;6.13;5.63;;;;;;;8.39;100.00;96364.41;5060064;28;20218;-62
2022/11/29 02:46:15;;;;;;;5.87;5.40;;;;;;;8.41;100.00;96362.47;5062322;28;20210;-63
2022/11/29 02:49:01;;;;;;;5.53;5.10;;;;;;;8.44;100.00;96361.34;5055087;28;20214;-62
2022/11/29 02:51:33;;;;;;;5.17;4.77;;;;;;;8.42;100.00;96358.03;5053710;28;20199;-63
2022/11/29 02:54:06;;;;;;;5.60;4.93;;;;;;;8.44;100.00;96356.06;5054989;28;20215;-62
2022/11/29 02:56:38;;;;;;;5.40;5.00;;;;;;;8.42;100.00;96363.28;5054808;28;20214;-62
2022/11/29 02:59:10;;;;;;;5.27;4.80;;;;;;;8.42;100.00;96360.66;5055132;28;20222;-62
2022/11/29 03:01:40;;;;;;;5.60;5.10;;;;;;;8.42;100.00;96358.88;5054827;28;20211;-63
2022/11/29 03:04:15;;;;;;;5.17;4.77;;;;;;;8.35;100.00;96356.91;5055273;28;20199;-62
2022/11/29 03:06:47;;;;;;;4.53;4.23;;;;;;;8.35;100.00;96356.91;5054146;28;20203;-63
2022/11/29 03:09:20;;;;;;;5.43;4.43;;;;;;;8.31;100.00;96355.50;5057169;28;20207;-62
2022/11/29 03:11:51;;;;;;;5.10;4.57;;;;;;;8.28;100.00;96368.91;5058270;28;20203;-63
2022/11/29 03:14:24;;;;;;;5.07;4.57;;;;;;;8.29;100.00;96362.72;5055330;28;20242;-63
2022/11/29 03:16:59;;;;;;;4.90;4.50;;;;;;;8.29;100.00;96374.06;5057758;28;20199;-64
2022/11/29 03:19:52;;;;;;;4.77;4.33;;;;;;;8.26;100.00;96368.22;5069587;28;20202;-64
2022/11/29 03:22:26;;;;;;;5.50;4.93;;;;;;;8.24;100.00;96375.41;5078211;28;20216;-64
2022/11/29 03:24:56;;;;;;;4.80;4.40;;;;;;;8.29;100.00;96379.34;5065509;28;20202;-63
2022/11/29 03:27:27;;;;;;;5.37;4.97;;;;;;;8.32;100.00;96367.72;5064401;28;20211;-63
2022/11/29 03:29:56;;;;;;;5.67;5.00;;;;;;;8.34;100.00;96378.94;5065427;28;20199;-64
2022/11/29 03:32:28;;;;;;;6.23;4.63;;;;;;;8.35;100.00;96376.19;5062890;28;20231;-63
2022/11/29 03:35:02;;;;;;;5.57;5.17;;;;;;;8.35;100.00;96378.81;5055795;28;20209;-63
2022/11/29 03:37:35;;;;;;;6.90;5.30;;;;;;;8.28;100.00;96379.47;5060378;28;20691;-63
2022/11/29 03:40:06;;;;;;;6.37;5.87;;;;;;;8.25;100.00;96382.38;5054563;28;20273;-63
2022/11/29 03:42:36;;;;;;;6.83;4.90;;;;;;;8.22;100.00;96377.38;5054633;28;20541;-63
2022/11/29 03:45:06;;;;;;;5.40;5.00;;;;;;;8.18;100.00;96381.25;5054709;28;20264;-62
2022/11/29 03:47:38;;;;;;;5.70;5.20;;;;;;;8.21;100.00;96388.88;5054368;28;20662;-63
2022/11/29 03:50:09;;;;;;;5.33;4.83;;;;;;;8.21;100.00;96386.22;5055977;28;20218;-62
2022/11/29 03:52:42;;;;;;;5.80;5.23;;;;;;;8.21;100.00;96386.22;5058017;28;20533;-61
2022/11/29 03:55:31;;;;;;;6.13;5.63;;;;;;;8.17;100.00;96384.84;5062664;28;20217;-62
2022/11/29 03:58:14;;;;;;;5.47;5.07;;;;;;;8.19;100.00;96389.00;5058379;28;20203;-62
2022/11/29 04:00:50;;;;;;;5.70;5.20;;;;;;;8.11;100.00;96390.66;5058003;28;20271;-63
2022/11/29 04:03:43;;;;;;;7.10;5.13;;;;;;;8.06;100.00;96387.56;5058831;28;20198;-64
2022/11/29 04:06:20;;;;;;;4.93;4.60;;;;;;;8.05;100.00;96389.38;5069481;28;20202;-63
2022/11/29 04:09:03;;;;;;;5.63;5.10;;;;;;;8.05;100.00;96383.25;5071332;28;20199;-63
2022/11/29 04:12:04;;;;;;;5.10;4.60;;;;;;;8.05;100.00;96384.09;5072150;28;20205;-63
2022/11/29 04:14:47;;;;;;;5.63;5.23;;;;;;;8.10;100.00;96386.34;5058143;28;20215;-63
2022/11/29 04:17:38;;;;;;;5.07;4.57;;;;;;;8.05;100.00;96391.16;5057903;28;20199;-62
2022/11/29 04:20:40;;;;;;;5.20;4.70;;;;;;;8.08;100.00;96385.66;5057279;28;20211;-63
2022/11/29 04:23:32;;;;;;;4.77;4.37;;;;;;;8.06;100.00;96388.41;5060145;28;20587;-63
2022/11/29 04:26:19;;;;;;;5.63;4.57;;;;;;;8.07;100.00;96381.34;5064400;28;20236;-62
2022/11/29 04:29:22;;;;;;;4.63;4.30;;;;;;;8.07;100.00;96390.09;5057516;28;20214;-63
2022/11/29 04:32:01;;;;;;;4.57;4.27;;;;;;;8.07;100.00;96389.25;5037397;28;20210;-63
2022/11/29 04:34:51;;;;;;;5.00;4.30;;;;;;;8.05;100.00;96392.00;5059430;28;20226;-63
2022/11/29 04:37:28;;;;;;;4.87;4.47;;;;;;;8.02;100.00;96398.38;5063299;28;20259;-63
2022/11/29 04:40:33;;;;;;;4.67;4.27;;;;;;;8.04;100.00;96392.97;5060337;28;20195;-63
2022/11/29 04:43:44;;;;;;;4.67;4.20;;;;;;;8.04;100.00;96394.78;5057352;28;20214;-63
2022/11/29 04:46:22;;;;;;;5.27;4.87;;;;;;;8.09;100.00;96392.56;5003168;28;20215;-63
2022/11/29 04:49:01;;;;;;;4.40;4.10;;;;;;;8.11;100.00;96395.91;5057381;28;20239;-63
2022/11/29 04:51:40;;;;;;;4.73;4.40;;;;;;;8.09;100.00;96395.19;5056468;28;20242;-63
2022/11/29 04:54:10;;;;;;;4.97;4.57;;;;;;;8.08;100.00;96401.44;5056716;28;20229;-63
2022/11/29 04:56:41;;;;;;;4.50;4.20;;;;;;;8.05;100.00;96402.53;5056893;28;20207;-63
2022/11/29 04:59:13;;;;;;;4.90;4.43;;;;;;;8.06;100.00;96413.91;5059963;28;20195;-63
2022/11/29 05:01:51;;;;;;;4.70;4.33;;;;;;;8.04;100.00;96406.16;5060114;28;20203;-63
2022/11/29 05:04:23;;;;;;;6.73;4.43;;;;;;;7.99;100.00;96403.91;5057095;28;20214;-63
2022/11/29 05:06:58;;;;;;;4.37;4.00;;;;;;;8.00;100.00;96412.66;5056001;28;20226;-62
2022/11/29 05:09:29;;;;;;;5.27;4.87;;;;;;;7.95;100.00;96407.78;5060663;28;20586;-63
2022/11/29 05:12:04;;;;;;;5.27;4.87;;;;;;;7.96;100.00;96413.88;5056281;28;20207;-63
2022/11/29 05:14:41;;;;;;;4.87;4.43;;;;;;;7.95;100.00;96418.31;5061464;28;20218;-62
2022/11/29 05:17:25;;;;;;;4.67;4.27;;;;;;;7.94;100.00;96411.34;5061904;28;20209;-63
2022/11/29 05:20:28;;;;;;;4.47;4.17;;;;;;;7.97;100.00;96411.09;5056212;28;20203;-62
2022/11/29 05:23:06;;;;;;;4.40;4.10;;;;;;;8.01;100.00;96416.94;5010328;28;20214;-62
2022/11/29 05:25:38;;;;;;;5.10;4.60;;;;;;;7.98;100.00;96414.56;5014634;28;20207;-63
2022/11/29 05:28:11;;;;;;;4.40;4.10;;;;;;;7.98;100.00;96423.28;5046107;28;20206;-62
2022/11/29 05:31:04;;;;;;;4.63;3.83;;;;;;;7.99;100.00;96417.06;5055880;28;20654;-63
2022/11/29 05:33:53;;;;;;;3.70;3.50;;;;;;;7.94;100.00;96415.78;5057601;28;20219;-62
2022/11/29 05:36:24;;;;;;;3.83;3.53;;;;;;;7.92;100.00;96413.31;5062377;28;20234;-62
2022/11/29 05:39:01;;;;;;;4.17;3.87;;;;;;;7.89;100.00;96413.56;5073594;28;20225;-61
2022/11/29 05:41:43;;;;;;;4.80;3.90;;;;;;;7.92;100.00;96423.00;5056893;28;20199;-61
2022/11/29 05:44:14;;;;;;;3.80;3.60;;;;;;;7.88;100.00;96425.06;5055941;28;20286;-63
2022/11/29 05:46:49;;;;;;;3.83;3.53;;;;;;;7.90;100.00;96420.47;5059497;28;20668;-68
2022/11/29 05:49:22;;;;;;;3.97;3.77;;;;;;;7.92;100.00;96430.91;5069659;28;20203;-62
2022/11/29 05:51:53;;;;;;;3.63;3.33;;;;;;;7.91;100.00;96431.84;5055427;28;20203;-61
2022/11/29 05:54:27;;;;;;;3.97;3.67;;;;;;;7.94;100.00;96426.31;5065440;28;20648;-59
2022/11/29 05:57:03;;;;;;;5.17;4.77;;;;;;;7.96;100.00;96430.50;5056061;28;20217;-60
2022/11/29 05:59:33;;;;;;;4.20;3.90;;;;;;;8.01;100.00;96438.00;5063429;28;20646;-60
2022/11/29 06:02:05;;;;;;;4.90;4.40;;;;;;;7.99;100.00;96432.88;5056475;28;20229;-59
2022/11/29 06:04:51;;;;;;;4.40;4.00;;;;;;;8.10;100.00;96431.09;5055511;28;20644;-66
2022/11/29 06:07:23;;;;;;;4.67;4.23;;;;;;;8.02;100.00;96432.59;5067362;28;20206;-60
2022/11/29 06:09:53;;;;;;;5.63;3.70;;;;;;;7.99;100.00;96438.13;5054862;28;20209;-62
2022/11/29 06:12:22;;;;;;;4.37;4.07;;;;;;;7.93;100.00;96446.56;5053374;28;20211;-63
2022/11/29 06:15:05;;;;;;;4.33;3.90;;;;;;;7.88;100.00;96440.03;5067780;28;20510;-63
2022/11/29 06:17:42;;;;;;;4.53;4.23;;;;;;;7.89;100.00;96447.78;5055980;28;20214;-63
2022/11/29 06:20:53;;;;;;;4.30;4.00;;;;;;;7.87;100.00;96448.88;5055359;28;20207;-63
2022/11/29 06:23:35;;;;;;;4.10;3.80;;;;;;;7.87;100.00;96446.25;5043052;28;20217;-62
2022/11/29 06:26:12;;;;;;;4.50;4.20;;;;;;;7.87;100.00;96447.06;5074663;28;20195;-63
2022/11/29 06:28:48;;;;;;;4.57;4.17;;;;;;;7.82;100.00;96461.59;5074491;28;20218;-63
2022/11/29 06:31:18;;;;;;;4.30;4.07;;;;;;;7.82;100.00;96451.09;5074945;28;20565;-63
2022/11/29 06:33:52;;;;;;;4.80;4.50;;;;;;;7.83;100.00;96456.19;5075105;28;20221;-63
2022/11/29 06:36:23;;;;;;;5.20;4.70;;;;;;;7.88;100.00;96451.38;5074230;28;20244;-62
2022/11/29 06:38:49;;;;;;;5.13;4.30;;;;;;;7.82;100.00;96454.56;5074815;28;20202;-63
2022/11/29 06:41:20;;;;;;;5.70;4.40;;;;;;;7.81;100.00;96452.03;5061839;28;20198;-62
2022/11/29 06:43:48;;;;;;;5.10;4.70;;;;;;;7.80;100.00;96455.63;5061784;28;20207;-61
2022/11/29 06:46:24;;;;;;;5.00;4.60;;;;;;;7.83;100.00;96458.03;5067652;28;20218;-62
2022/11/29 06:48:54;;;;;;;5.10;4.70;;;;;;;7.83;100.00;96458.84;5056746;28;20207;-63
2022/11/29 06:51:26;;;;;;;6.53;5.90;;;;;;;7.87;100.00;96462.88;5062981;28;20210;-64
2022/11/29 06:54:00;;;;;;;5.53;5.03;;;;;;;7.86;100.00;96463.88;5055249;28;20230;-62
2022/11/29 06:56:34;;;;;;;5.23;4.77;;;;;;;7.82;100.00;96472.13;5054903;28;20195;-63
2022/11/29 06:59:08;;;;;;;4.80;4.40;;;;;;;7.85;100.00;96469.25;5071264;28;20213;-62
2022/11/29 07:01:39;;;;;;;5.43;5.00;;;;;;;7.79;100.00;96465.34;5074739;28;20205;-62
2022/11/29 07:04:28;;;;;;;4.93;4.53;;;;;;;7.81;100.00;96466.03;5073885;28;20198;-63
2022/11/29 07:06:56;;;;;;;4.70;4.30;;;;;;;7.79;100.00;96477.66;5065782;28;20202;-63
2022/11/29 07:09:26;;;;;;;4.73;4.40;;;;;;;7.87;100.00;96469.94;5062670;28;20659;-63
2022/11/29 07:11:53;;;;;;;5.63;5.10;;;;;;;7.81;100.00;96481.84;5059280;28;20214;-63
2022/11/29 07:14:20;;;;;;;5.03;4.53;;;;;;;7.77;100.00;96476.94;5066646;28;20226;-63
2022/11/29 07:16:56;;;;;;;5.77;4.60;;;;;;;7.78;100.00;96482.09;5071234;28;20662;-64
2022/11/29 07:19:33;;;;;;;5.17;4.70;;;;;;;7.78;100.00;96489.16;5057367;28;20211;-63
2022/11/29 07:22:05;;;;;;;5.43;5.00;;;;;;;7.76;100.00;96485.84;5074952;28;20194;-63
2022/11/29 07:24:42;;;;;;;4.83;4.27;;;;;;;7.77;100.00;96495.38;5063804;28;20632;-63
2022/11/29 07:27:15;;;;;;;5.10;4.60;;;;;;;7.77;100.00;96483.06;5060566;28;20203;-63
2022/11/29 07:29:50;;;;;;;4.73;4.30;;;;;;;7.78;100.00;96495.25;5073005;28;20207;-63
2022/11/29 07:32:26;;;;;;;4.83;4.33;;;;;;;7.81;100.00;96500.25;5078031;28;20208;-62
2022/11/29 07:34:59;;;;;;;5.90;4.50;;;;;;;7.82;100.00;96486.16;5076756;28;20223;-61
2022/11/29 07:37:34;;;;;;;5.10;4.60;;;;;;;7.81;100.00;96481.00;5077076;28;20242;-63
2022/11/29 07:40:08;;;;;;;6.00;4.90;;;;;;;7.82;100.00;96486.16;5058674;28;20654;-63
2022/11/29 07:42:40;;;;;;;5.37;4.90;;;;;;;7.82;100.00;96486.16;5060346;28;20643;-63
2022/11/29 07:45:13;;;;;;;4.93;4.47;;;;;;;7.81;100.00;96495.00;5059374;28;20203;-63
2022/11/29 07:47:40;;;;;;;5.10;4.60;;;;;;;7.83;100.00;96489.63;5060088;28;20210;-62
2022/11/29 07:50:08;;;;;;;4.73;4.33;;;;;;;7.93;100.00;96491.34;5060828;28;20876;-64
2022/11/29 07:52:35;;;;;;;4.77;4.40;;;;;;;7.84;100.00;96494.72;5059373;28;20211;-63
2022/11/29 07:55:03;;;;;;;5.03;4.53;;;;;;;7.81;100.00;96500.25;5058153;28;20322;-63
2022/11/29 07:57:30;;;;;;;5.30;4.60;;;;;;;7.83;100.00;96498.31;5058036;28;20207;-63
2022/11/29 07:59:57;;;;;;;5.43;4.83;;;;;;;7.88;100.00;96505.84;5058389;28;20321;-62
2022/11/29 08:02:27;;;;;;;4.80;4.40;;;;;;;7.88;100.00;96505.84;5057787;28;20211;-63
2022/11/29 08:04:55;;;;;;;5.00;4.60;;;;;;;7.86;100.00;96503.34;5057571;28;20658;-63
2022/11/29 08:07:22;;;;;;;5.63;4.77;;;;;;;7.88;100.00;96511.09;5058132;28;20226;-63
2022/11/29 08:09:48;;;;;;;5.33;4.83;;;;;;;7.93;100.00;96499.22;5071098;28;20311;-62
2022/11/29 08:12:16;;;;;;;5.27;4.70;;;;;;;7.94;100.00;96511.41;5070771;28;20221;-63
2022/11/29 08:14:43;;;;;;;5.00;4.60;;;;;;;8.01;100.00;96512.56;5058007;28;20242;-63
2022/11/29 08:17:09;;;;;;;4.53;4.13;;;;;;;8.06;100.00;96512.19;5057687;28;20206;-63
2022/11/29 08:19:36;;;;;;;4.80;4.40;;;;;;;8.16;100.00;96520.13;5075905;28;20217;-62
2022/11/29 08:22:04;;;;;;;5.60;4.80;;;;;;;8.18;100.00;96515.56;5069515;28;20222;-63
2022/11/29 08:24:31;;;;;;;6.87;4.67;;;;;;;8.19;100.00;96515.41;5072168;28;20199;-62
2022/11/29 08:26:57;;;;;;;4.73;4.23;;;;;;;8.24;100.00;96518.50;5069271;28;20203;-62
2022/11/29 08:29:24;;;;;;;4.80;4.40;;;;;;;8.28;100.00;96516.44;5070831;28;20210;-63
2022/11/29 08:31:52;;;;;;;4.83;4.37;;;;;;;8.29;100.00;96523.41;5057588;28;20218;-63
2022/11/29 08:34:19;;;;;;;5.03;4.57;;;;;;;8.29;100.00;96515.53;5057861;28;20226;-63
2022/11/29 08:36:46;;;;;;;4.97;4.50;;;;;;;8.32;100.00;96526.63;5059590;28;20234;-62
2022/11/29 08:39:14;;;;;;;11.00;8.77;;;;;;;8.38;100.00;96530.53;5071589;28;20203;-63
2022/11/29 08:41:40;;;;;;;6.53;5.50;;;;;;;8.36;100.00;96525.38;5066221;28;20198;-63
2022/11/29 08:44:08;;;;;;;7.00;4.50;;;;;;;8.42;100.00;96524.03;5063845;28;20221;-64
2022/11/29 08:49:18;;;;;;;5.23;4.53;;;;;;;8.49;100.00;96528.63;5081979;28;20202;-63
2022/11/29 08:51:47;;;;;;;6.87;4.70;;;;;;;8.54;100.00;96530.03;5079310;28;20213;-63
2022/11/29 08:54:14;;;;;;;5.13;4.20;;;;;;;8.63;100.00;96530.06;5063216;28;20403;-63
2022/11/29 08:56:42;;;;;;;5.17;4.67;;;;;;;8.67;100.00;96526.19;5071880;28;20210;-63
2022/11/29 08:59:09;;;;;;;4.97;4.50;;;;;;;8.71;100.00;96521.50;5075900;28;20223;-63
2022/11/29 09:01:35;;;;;;;7.70;4.73;;;;;;;8.74;100.00;96527.31;5086409;28;20626;-63
2022/11/29 09:04:06;;;;;;;5.37;4.50;;;;;;;8.74;100.00;96534.41;5087557;28;20202;-63
2022/11/29 09:06:34;;;;;;;5.70;4.03;;;;;;;8.80;100.00;96532.06;5062989;28;20199;-62
2022/11/29 09:09:01;;;;;;;5.33;4.43;;;;;;;8.76;100.00;96535.94;5069444;28;20207;-63
2022/11/29 09:11:30;;;;;;;4.63;4.23;;;;;;;8.82;100.00;96537.22;5069833;28;20549;-63
2022/11/29 09:13:58;;;;;;;5.43;4.30;;;;;;;8.79;100.00;96538.28;5058715;28;20218;-63
2022/11/29 09:16:28;;;;;;;6.40;4.63;;;;;;;8.82;100.00;96538.00;5075194;28;20226;-63
2022/11/29 09:18:56;;;;;;;6.03;3.93;;;;;;;8.85;100.00;96540.41;5071103;28;20222;-63
2022/11/29 09:21:25;;;;;;;5.73;3.90;;;;;;;8.86;100.00;96542.06;5072228;28;20203;-63
2022/11/29 09:23:57;;;;;;;5.40;3.97;;;;;;;8.94;100.00;96549.28;5077011;28;20535;-63
2022/11/29 09:26:25;;;;;;;6.63;4.33;;;;;;;8.94;100.00;96546.66;5077115;28;20194;-63
2022/11/29 09:28:54;;;;;;;4.27;3.87;;;;;;;8.95;100.00;96545.69;5066884;28;20218;-63
2022/11/29 09:31:21;;;;;;;4.23;3.80;;;;;;;8.96;100.00;96550.00;5078082;28;20279;-63
2022/11/29 09:33:49;;;;;;;4.23;3.80;;;;;;;8.96;100.00;96548.19;5067411;28;20227;-63
2022/11/29 09:36:16;;;;;;;4.40;4.00;;;;;;;8.98;100.00;96545.41;5069521;28;20227;-64
2022/11/29 09:38:43;;;;;;;5.03;3.83;;;;;;;8.94;100.00;96555.41;5065256;28;20219;-63
2022/11/29 09:41:22;;;;;;;5.13;4.40;;;;;;;8.95;100.00;96550.97;5062876;28;20214;-63
2022/11/29 09:43:55;;;;;;;4.70;4.23;;;;;;;8.87;100.00;96554.28;5078432;28;20194;-64
2022/11/29 09:46:30;;;;;;;5.73;4.00;;;;;;;8.91;100.00;96554.84;5076431;28;20191;-63
2022/11/29 09:49:04;;;;;;;6.27;3.90;;;;;;;8.90;100.00;96558.44;5062100;28;20213;-63
2022/11/29 09:51:37;;;;;;;5.80;3.53;;;;;;;8.96;100.00;96558.72;5072505;28;20205;-63
2022/11/29 09:54:14;;;;;;;4.50;3.13;;;;;;;8.93;100.00;96559.00;5072162;28;20282;-63
2022/11/29 09:56:43;;;;;;;4.23;3.50;;;;;;;8.96;100.00;96557.94;5055702;28;20222;-62
2022/11/29 09:59:14;;;;;;;6.77;3.80;;;;;;;8.98;100.00;96551.53;5070153;28;20217;-63
2022/11/29 10:01:46;;;;;;;4.23;3.60;;;;;;;8.98;100.00;96548.91;5075775;28;20287;-63
2022/11/29 10:04:17;;;;;;;5.93;3.63;;;;;;;9.06;100.00;96550.88;5075929;28;20205;-63
2022/11/29 10:06:45;;;;;;;5.27;3.57;;;;;;;9.14;100.00;96555.47;5074781;28;20194;-62
2022/11/29 10:09:15;;;;;;;4.70;3.97;;;;;;;9.14;100.00;96556.28;5067563;28;20222;-63
2022/11/29 10:12:01;;;;;;;5.93;3.80;;;;;;;9.15;100.00;96557.09;5070756;28;20197;-63
2022/11/29 10:14:35;;;;;;;4.50;3.10;;;;;;;9.22;100.00;96552.94;5075271;28;20206;-63
2022/11/29 10:17:07;;;;;;;4.60;3.23;;;;;;;9.22;100.00;96555.59;5056254;28;20203;-63
2022/11/29 10:19:36;;;;;;;7.03;3.30;;;;;;;9.34;100.00;96557.16;5055683;28;20196;-63
2022/11/29 10:22:08;;;;;;;6.43;3.30;;;;;;;9.34;99.48;96552.72;5055288;28;20237;-63
2022/11/29 10:24:34;;;;;;;4.53;3.30;;;;;;;9.33;98.24;96550.19;5069950;28;20222;-63
2022/11/29 10:27:02;;;;;;;3.40;3.10;;;;;;;9.22;97.48;96552.94;5075448;28;20213;-63
2022/11/29 10:29:30;;;;;;;6.27;2.97;;;;;;;9.23;99.51;96552.00;5061906;28;20297;-62
2022/11/29 10:31:58;;;;;;;4.83;3.20;;;;;;;9.21;100.00;96546.03;5074836;28;20583;-62
2022/11/29 10:34:25;;;;;;;4.23;3.33;;;;;;;9.31;99.32;96554.78;5074756;28;20646;-63
2022/11/29 10:36:53;;;;;;;5.10;2.97;;;;;;;9.34;98.93;96546.59;5065487;28;20235;-63
2022/11/29 10:39:24;;;;;;;4.57;3.30;;;;;;;9.31;100.00;96549.50;5055074;28;20297;-63
2022/11/29 10:41:56;;;;;;;3.77;2.80;;;;;;;9.37;100.00;96548.94;5055224;28;20199;-63
2022/11/29 10:44:23;;;;;;;5.10;3.20;;;;;;;9.42;100.00;96546.75;5055322;28;20199;-63
2022/11/29 10:46:51;;;;;;;6.67;3.50;;;;;;;9.49;99.58;96545.22;5054878;28;20210;-63
2022/11/29 10:49:20;;;;;;;8.53;3.40;;;;;;;9.46;100.00;96550.75;5054981;28;20226;-63
2022/11/29 10:51:47;;;;;;;5.90;3.20;;;;;;;9.42;99.30;96552.03;5070004;28;20319;-63
2022/11/29 10:54:30;;;;;;;5.87;2.77;;;;;;;9.43;99.49;96553.66;5074772;28;20199;-64
2022/11/29 10:56:57;;;;;;;3.87;3.10;;;;;;;9.49;98.48;96553.13;5056869;28;20266;-63
2022/11/29 10:59:26;;;;;;;4.60;2.90;;;;;;;9.50;98.01;96547.69;5074766;28;20207;-63
2022/11/29 11:01:54;;;;;;;5.70;3.00;;;;;;;9.52;97.76;96544.94;5074586;28;20202;-63
2022/11/29 11:04:29;;;;;;;4.93;2.97;;;;;;;9.57;95.71;96547.97;5066465;28;20203;-63
2022/11/29 11:06:56;;;;;;;4.30;2.80;;;;;;;9.60;96.19;96546.88;5067915;28;20194;-63
2022/11/29 11:09:29;;;;;;;5.20;2.60;;;;;;;9.56;94.35;96545.50;5055019;28;20203;-63
2022/11/29 11:11:58;;;;;;;5.90;2.77;;;;;;;9.57;94.66;96541.84;5054881;28;20200;-63
2022/11/29 11:14:26;;;;;;;5.27;2.87;;;;;;;9.58;98.10;96546.16;5056190;28;20526;-63
2022/11/29 11:16:55;;;;;;;5.43;2.40;;;;;;;9.61;94.26;96538.81;5055259;28;20223;-63
2022/11/29 11:19:28;;;;;;;8.63;2.97;;;;;;;9.61;96.01;96543.25;5055516;28;20663;-63
2022/11/29 11:21:55;;;;;;;4.90;3.03;;;;;;;9.62;96.51;96545.75;5055705;28;20198;-63
2022/11/29 11:24:24;;;;;;;4.93;2.60;;;;;;;9.65;95.44;96534.09;5055959;28;20210;-64
2022/11/29 11:26:51;;;;;;;4.83;3.07;;;;;;;9.64;95.06;96537.69;5057612;28;20202;-64
2022/11/29 11:29:20;;;;;;;5.60;2.53;;;;;;;9.66;95.51;96541.03;5068208;28;20213;-63
2022/11/29 11:31:53;;;;;;;3.53;2.50;;;;;;;9.65;96.12;96539.38;5054617;28;20198;-63
2022/11/29 11:34:27;;;;;;;3.83;2.67;;;;;;;9.70;95.38;96540.63;5054588;28;20210;-63
2022/11/29 11:36:55;;;;;;;4.00;3.27;;;;;;;9.70;94.55;96545.91;5066829;28;20237;-63
2022/11/29 11:39:23;;;;;;;3.93;2.57;;;;;;;9.65;93.58;96539.38;5072032;28;20229;-63
2022/11/29 11:44:39;;;;;;;3.90;2.70;;;;;;;9.69;95.13;96538.94;5054549;28;20207;-63
2022/11/29 11:47:07;;;;;;;5.80;2.90;;;;;;;9.70;96.85;96542.44;5054652;28;20203;-62
2022/11/29 11:49:37;;;;;;;3.13;2.63;;;;;;;9.68;98.27;96550.47;5059728;28;20570;-64
2022/11/29 11:52:06;;;;;;;7.93;3.17;;;;;;;9.70;98.43;96547.72;5090200;28;20202;-63
2022/11/29 11:54:32;;;;;;;5.87;3.10;;;;;;;9.67;95.04;96540.06;5067429;28;20210;-63
2022/11/29 11:56:59;;;;;;;4.53;2.97;;;;;;;9.59;94.09;96550.50;5054463;28;20666;-63
2022/11/29 11:59:26;;;;;;;7.90;3.17;;;;;;;9.66;94.72;96543.69;5054103;28;20539;-63
2022/11/29 12:01:53;;;;;;;4.77;2.53;;;;;;;9.60;96.53;96552.97;5054095;28;20210;-63
2022/11/29 12:04:22;;;;;;;9.83;3.57;;;;;;;9.65;96.10;96544.63;5054295;28;20215;-63